createdAt,value
2017-09-29T00:02:23.761Z,98897.30
2017-09-29T00:04:52.785Z,98899.84
2017-09-29T00:07:21.045Z,98900.67
2017-09-29T00:09:49.289Z,98901.11
2017-09-29T00:12:17.547Z,98896.45
2017-09-29T00:14:45.788Z,98896.45
2017-09-29T00:17:14.042Z,98890.03
2017-09-29T00:19:42.297Z,98888.31
2017-09-29T00:22:10.553Z,98891.73
2017-09-29T00:24:38.802Z,98893.45
2017-09-29T00:27:07.065Z,98896.45
2017-09-29T00:29:35.327Z,98886.16
2017-09-29T00:32:03.579Z,98885.30
2017-09-29T00:34:32.607Z,98884.45
2017-09-29T00:37:00.865Z,98878.04
2017-09-29T00:39:29.129Z,98875.88
2017-09-29T00:41:58.154Z,98877.58
2017-09-29T00:44:26.407Z,98876.70
2017-09-29T00:46:54.665Z,98875.88
2017-09-29T00:49:22.918Z,98870.27
2017-09-29T00:51:51.174Z,98870.70
2017-09-29T00:54:19.425Z,98866.02
2017-09-29T00:56:47.692Z,98865.58
2017-09-29T00:59:15.938Z,98864.72
2017-09-29T01:01:44.199Z,98872.87
2017-09-29T01:04:12.458Z,98873.70
2017-09-29T01:06:40.713Z,98870.73
2017-09-29T01:09:08.966Z,98875.00
2017-09-29T01:11:37.231Z,98871.59
2017-09-29T01:14:06.251Z,98874.14
2017-09-29T01:16:34.503Z,98876.72
2017-09-29T01:19:02.753Z,98872.87
2017-09-29T01:21:31.009Z,98868.14
2017-09-29T01:23:59.261Z,98867.73
2017-09-29T01:26:27.526Z,98868.58
2017-09-29T01:28:55.770Z,98866.47
2017-09-29T01:31:24.795Z,98869.46
2017-09-29T01:33:53.050Z,98861.30
2017-09-29T01:36:22.076Z,98869.88
2017-09-29T01:38:50.318Z,98867.28
2017-09-29T01:41:18.582Z,98870.70
2017-09-29T01:43:47.604Z,98873.30
2017-09-29T01:46:15.871Z,98871.99
2017-09-29T01:48:44.120Z,98866.85
2017-09-29T01:51:13.148Z,98872.41
2017-09-29T01:53:41.411Z,98871.13
2017-09-29T01:56:09.658Z,98869.00
2017-09-29T01:58:38.694Z,98867.73
2017-09-29T02:01:06.942Z,98863.45
2017-09-29T02:03:35.956Z,98865.17
2017-09-29T02:06:04.200Z,98862.19
2017-09-29T02:08:33.235Z,98860.45
2017-09-29T02:11:01.478Z,98861.75
2017-09-29T02:13:30.507Z,98857.47
2017-09-29T02:15:58.763Z,98854.89
2017-09-29T02:18:27.017Z,98858.31
2017-09-29T02:20:56.034Z,98855.70
2017-09-29T02:23:24.297Z,98856.95
2017-09-29T02:25:53.313Z,98858.61
2017-09-29T02:28:21.567Z,98852.22
2017-09-29T02:30:49.827Z,98854.78
2017-09-29T02:33:18.075Z,98854.78
2017-09-29T02:35:46.318Z,98848.36
2017-09-29T02:38:14.578Z,98844.45
2017-09-29T02:40:42.829Z,98850.41
2017-09-29T02:43:11.859Z,98847.41
2017-09-29T02:45:40.116Z,98850.38
2017-09-29T02:48:08.374Z,98852.92
2017-09-29T02:50:37.401Z,98850.37
2017-09-29T02:53:05.663Z,98847.81
2017-09-29T02:55:33.913Z,98849.97
2017-09-29T02:58:03.653Z,98851.67
2017-09-29T03:00:33.473Z,98852.11
2017-09-29T03:03:06.686Z,98852.52
2017-09-29T03:05:36.705Z,98848.66
2017-09-29T03:08:04.979Z,98853.44
2017-09-29T03:10:33.231Z,98847.05
2017-09-29T03:13:01.486Z,98842.80
2017-09-29T03:15:30.512Z,98838.12
2017-09-29T03:17:58.768Z,98838.55
2017-09-29T03:20:27.026Z,98837.69
2017-09-29T03:22:56.052Z,98831.70
2017-09-29T03:25:24.314Z,98830.39
2017-09-29T03:27:52.564Z,98832.94
2017-09-29T03:30:20.811Z,98838.91
2017-09-29T03:32:49.066Z,98835.07
2017-09-29T03:35:17.317Z,98834.19
2017-09-29T03:37:45.578Z,98835.94
2017-09-29T03:40:14.595Z,98830.34
2017-09-29T03:42:42.862Z,98842.78
2017-09-29T03:45:11.104Z,98845.36
2017-09-29T03:47:40.183Z,98840.64
2017-09-29T03:50:10.150Z,98844.92
2017-09-29T03:52:40.278Z,98844.95
2017-09-29T03:55:09.121Z,98840.17
2017-09-29T03:57:39.614Z,98839.78
2017-09-29T04:00:07.971Z,98841.52
2017-09-29T04:02:36.231Z,98853.89
2017-09-29T04:05:05.252Z,98851.70
2017-09-29T04:07:33.523Z,98854.23
2017-09-29T04:10:01.777Z,98850.01
2017-09-29T04:12:30.797Z,98843.21
2017-09-29T04:14:59.050Z,98837.70
2017-09-29T04:17:27.309Z,98838.98
2017-09-29T04:19:56.317Z,98837.27
2017-09-29T04:22:24.585Z,98840.68
2017-09-29T04:24:53.605Z,98829.53
2017-09-29T04:27:21.878Z,98829.05
2017-09-29T04:29:50.126Z,98829.48
2017-09-29T04:32:19.241Z,98823.88
2017-09-29T04:34:47.486Z,98832.40
2017-09-29T04:37:16.523Z,98831.95
2017-09-29T04:39:44.774Z,98833.69
2017-09-29T04:42:13.041Z,98830.27
2017-09-29T04:44:42.050Z,98831.19
2017-09-29T04:47:10.314Z,98833.33
2017-09-29T04:49:38.577Z,98833.32
2017-09-29T04:52:07.590Z,98835.86
2017-09-29T04:54:35.846Z,98829.88
2017-09-29T04:57:04.867Z,98841.01
2017-09-29T04:59:33.130Z,98840.59
2017-09-29T05:02:02.152Z,98846.97
2017-09-29T05:04:30.415Z,98846.55
2017-09-29T05:06:58.660Z,98841.91
2017-09-29T05:09:27.684Z,98847.05
2017-09-29T05:11:55.934Z,98843.23
2017-09-29T05:14:24.963Z,98846.66
2017-09-29T05:16:53.216Z,98848.80
2017-09-29T05:19:21.485Z,98848.34
2017-09-29T05:21:50.499Z,98852.16
2017-09-29T05:24:18.763Z,98850.03
2017-09-29T05:26:47.004Z,98855.17
2017-09-29T05:29:15.258Z,98862.00
2017-09-29T05:31:43.519Z,98857.78
2017-09-29T05:34:11.782Z,98859.91
2017-09-29T05:36:40.026Z,98862.84
2017-09-29T05:39:09.057Z,98869.69
2017-09-29T05:41:37.305Z,98868.01
2017-09-29T05:44:05.563Z,98868.85
2017-09-29T05:46:34.582Z,98863.71
2017-09-29T05:49:02.847Z,98871.43
2017-09-29T05:51:31.103Z,98867.14
2017-09-29T05:54:00.130Z,98870.17
2017-09-29T05:56:28.422Z,98872.75
2017-09-29T05:58:56.670Z,98871.92
2017-09-29T06:01:24.923Z,98871.90
2017-09-29T06:03:53.937Z,98877.00
2017-09-29T06:06:22.189Z,98873.95
2017-09-29T06:08:51.222Z,98877.44
2017-09-29T06:11:19.462Z,98875.30
2017-09-29T06:13:48.495Z,98876.56
2017-09-29T06:16:16.737Z,98880.83
2017-09-29T06:18:45.766Z,98879.19
2017-09-29T06:21:14.015Z,98889.41
2017-09-29T06:23:42.282Z,98884.27
2017-09-29T06:26:11.307Z,98885.16
2017-09-29T06:28:39.561Z,98887.33
2017-09-29T06:31:07.814Z,98882.19
2017-09-29T06:33:36.070Z,98891.98
2017-09-29T06:36:04.330Z,98895.81
2017-09-29T06:38:32.591Z,98897.48
2017-09-29T06:41:00.841Z,98899.25
2017-09-29T06:43:29.102Z,98896.30
2017-09-29T06:45:58.118Z,98892.47
2017-09-29T06:48:26.384Z,98891.63
2017-09-29T06:50:55.423Z,98891.22
2017-09-29T06:53:23.675Z,98893.78
2017-09-29T06:55:51.927Z,98893.39
2017-09-29T06:58:20.178Z,98901.53
2017-09-29T07:00:48.430Z,98904.06
2017-09-29T07:03:16.702Z,98896.82
2017-09-29T07:05:44.968Z,98899.83
2017-09-29T07:08:13.212Z,98889.98
2017-09-29T07:10:41.466Z,98892.97
2017-09-29T07:13:10.495Z,98901.07
2017-09-29T07:15:38.750Z,98901.95
2017-09-29T07:18:07.014Z,98905.34
2017-09-29T07:20:36.031Z,98908.31
2017-09-29T07:23:04.295Z,98909.63
2017-09-29T07:25:34.032Z,98912.19
2017-09-29T07:28:03.122Z,98920.78
2017-09-29T07:30:32.229Z,98918.22
2017-09-29T07:33:00.489Z,98917.80
2017-09-29T07:35:28.746Z,98914.82
2017-09-29T07:37:57.004Z,98915.63
2017-09-29T07:40:26.027Z,98915.23
2017-09-29T07:42:54.293Z,98913.08
2017-09-29T07:45:22.550Z,98918.17
2017-09-29T07:47:51.567Z,98916.96
2017-09-29T07:50:19.843Z,98922.56
2017-09-29T07:52:48.094Z,98915.30
2017-09-29T07:55:17.121Z,98915.69
2017-09-29T07:57:45.371Z,98916.13
2017-09-29T08:00:14.393Z,98912.66
2017-09-29T08:02:42.638Z,98907.97
2017-09-29T08:05:11.746Z,98911.01
2017-09-29T08:07:39.994Z,98909.73
2017-09-29T08:10:09.022Z,98904.16
2017-09-29T08:12:37.278Z,98906.73
2017-09-29T08:15:06.299Z,98896.03
2017-09-29T08:17:34.542Z,98896.52
2017-09-29T08:20:03.555Z,98890.03
2017-09-29T08:22:31.804Z,98884.95
2017-09-29T08:25:00.818Z,98880.23
2017-09-29T08:27:29.079Z,98884.03
2017-09-29T08:29:58.094Z,98890.46
2017-09-29T08:32:26.363Z,98885.73
2017-09-29T08:34:54.612Z,98894.30
2017-09-29T08:37:23.641Z,98893.83
2017-09-29T08:39:51.881Z,98889.58
2017-09-29T08:42:20.910Z,98890.91
2017-09-29T08:44:49.171Z,98894.75
2017-09-29T08:47:18.194Z,98895.16
2017-09-29T08:49:46.462Z,98902.84
2017-09-29T08:52:14.714Z,98907.98
2017-09-29T08:54:43.011Z,98912.28
2017-09-29T08:57:11.263Z,98913.98
2017-09-29T08:59:40.290Z,98914.87
2017-09-29T09:02:08.538Z,98912.33
2017-09-29T09:04:36.799Z,98912.75
2017-09-29T09:07:05.809Z,98911.87
2017-09-29T09:09:34.067Z,98902.93
2017-09-29T09:12:03.082Z,98904.23
2017-09-29T09:14:31.345Z,98903.31
2017-09-29T09:16:59.595Z,98908.09
2017-09-29T09:19:28.625Z,98908.53
2017-09-29T09:21:56.881Z,98905.52
2017-09-29T09:24:25.894Z,98899.91
2017-09-29T09:26:54.154Z,98898.17
2017-09-29T09:29:23.161Z,98898.58
2017-09-29T09:31:51.419Z,98889.20
2017-09-29T09:34:20.429Z,98893.02
2017-09-29T09:36:48.690Z,98886.62
2017-09-29T09:39:17.699Z,98890.47
2017-09-29T09:41:45.955Z,98885.74
2017-09-29T09:44:14.961Z,98880.63
2017-09-29T09:46:43.218Z,98878.05
2017-09-29T09:49:12.232Z,98872.41
2017-09-29T09:51:40.489Z,98873.25
2017-09-29T09:54:09.502Z,98867.72
2017-09-29T09:56:37.756Z,98874.04
2017-09-29T09:59:06.766Z,98867.21
2017-09-29T10:01:35.061Z,98869.82
2017-09-29T10:04:03.294Z,98862.09
2017-09-29T10:06:31.561Z,98863.74
2017-09-29T10:09:01.313Z,98865.91
2017-09-29T10:11:29.569Z,98866.34
2017-09-29T10:13:58.587Z,98858.42
2017-09-29T10:16:26.834Z,98859.69
2017-09-29T10:18:55.860Z,98858.31
2017-09-29T10:21:24.122Z,98854.80
2017-09-29T10:23:52.382Z,98854.23
2017-09-29T10:26:21.394Z,98853.84
2017-09-29T10:28:49.651Z,98847.59
2017-09-29T10:31:18.678Z,98849.77
2017-09-29T10:33:46.934Z,98842.61
2017-09-29T10:36:15.182Z,98840.42
2017-09-29T10:38:43.429Z,98838.22
2017-09-29T10:41:11.679Z,98836.01
2017-09-29T10:43:39.955Z,98826.81
2017-09-29T10:46:08.202Z,98827.64
2017-09-29T10:48:37.214Z,98828.67
2017-09-29T10:51:05.466Z,98823.02
2017-09-29T10:53:34.483Z,98825.47
2017-09-29T10:56:02.734Z,98822.96
2017-09-29T10:58:31.741Z,98821.08
2017-09-29T11:00:59.993Z,98817.97
2017-09-29T11:03:29.017Z,98818.98
2017-09-29T11:05:57.265Z,98824.27
2017-09-29T11:08:26.288Z,98820.25
2017-09-29T11:10:55.305Z,98813.17
2017-09-29T11:13:23.552Z,98812.83
2017-09-29T11:15:52.578Z,98810.88
2017-09-29T11:18:20.821Z,98819.69
2017-09-29T11:20:49.847Z,98803.30
2017-09-29T11:23:18.089Z,98815.07
2017-09-29T11:25:46.349Z,98814.63
2017-09-29T11:28:15.362Z,98808.10
2017-09-29T11:30:43.619Z,98809.19
2017-09-29T11:33:12.630Z,98811.51
2017-09-29T11:35:40.898Z,98805.00
2017-09-29T11:38:10.855Z,98799.68
2017-09-29T11:40:39.102Z,98806.17
2017-09-29T11:43:07.358Z,98798.97
2017-09-29T11:45:36.395Z,98797.16
2017-09-29T11:48:04.640Z,98799.34
2017-09-29T11:50:32.886Z,98794.80
2017-09-29T11:53:01.137Z,98796.27
2017-09-29T11:55:29.382Z,98788.63
2017-09-29T11:57:57.642Z,98783.48
2017-09-29T12:00:25.894Z,98784.67
2017-09-29T12:02:54.918Z,98776.70
2017-09-29T12:05:23.173Z,98777.67
2017-09-29T12:07:52.195Z,98778.94
2017-09-29T12:10:20.440Z,98774.85
2017-09-29T12:12:49.467Z,98773.70
2017-09-29T12:15:17.709Z,98772.70
2017-09-29T12:17:46.822Z,98775.39
2017-09-29T12:20:15.073Z,98767.12
2017-09-29T12:22:44.096Z,98764.31
2017-09-29T12:25:12.346Z,98764.28
2017-09-29T12:27:41.362Z,98763.25
2017-09-29T12:30:09.626Z,98761.41
2017-09-29T12:32:38.650Z,98764.39
2017-09-29T12:35:06.906Z,98767.38
2017-09-29T12:37:35.158Z,98761.03
2017-09-29T12:40:04.187Z,98761.48
2017-09-29T12:42:32.439Z,98759.41
2017-09-29T12:45:01.543Z,98755.81
2017-09-29T12:47:29.793Z,98762.85
2017-09-29T12:49:58.819Z,98754.90
2017-09-29T12:52:27.074Z,98750.66
2017-09-29T12:54:56.107Z,98741.60
2017-09-29T12:57:24.362Z,98742.97
2017-09-29T12:59:52.615Z,98743.37
2017-09-29T13:02:21.642Z,98745.53
2017-09-29T13:04:49.894Z,98743.20
2017-09-29T13:07:18.167Z,98732.41
2017-09-29T13:09:47.180Z,98731.68
2017-09-29T13:12:15.553Z,98731.14
2017-09-29T13:14:43.707Z,98731.02
2017-09-29T13:17:12.736Z,98732.38
2017-09-29T13:19:40.994Z,98732.03
2017-09-29T13:22:09.250Z,98726.27
2017-09-29T13:24:38.257Z,98724.53
2017-09-29T13:27:06.518Z,98723.80
2017-09-29T13:29:35.527Z,98720.59
2017-09-29T13:32:03.793Z,98715.36
2017-09-29T13:34:32.051Z,98711.83
2017-09-29T13:37:01.075Z,98715.70
2017-09-29T13:39:29.372Z,98712.41
2017-09-29T13:41:57.636Z,98707.42
2017-09-29T13:44:25.886Z,98704.54
2017-09-29T13:46:54.903Z,98712.59
2017-09-29T13:52:40.918Z,98700.87
2017-09-29T13:55:09.165Z,98705.92
2017-09-29T13:57:38.198Z,98707.98
2017-09-29T14:00:06.450Z,98708.58
2017-09-29T14:02:34.699Z,98707.22
2017-09-29T14:05:03.729Z,98707.97
2017-09-29T14:07:31.989Z,98703.05
2017-09-29T14:10:00.265Z,98707.63
2017-09-29T14:12:29.258Z,98707.88
2017-09-29T14:14:57.524Z,98697.47
2017-09-29T14:17:26.554Z,98695.95
2017-09-29T14:19:54.794Z,98698.80
2017-09-29T14:22:23.061Z,98697.51
2017-09-29T14:24:52.086Z,98699.11
2017-09-29T14:27:20.332Z,98695.70
2017-09-29T14:29:49.350Z,98694.83
2017-09-29T14:32:17.609Z,98693.95
2017-09-29T14:34:45.871Z,98693.53
2017-09-29T14:37:14.895Z,98694.53
2017-09-29T14:39:43.142Z,98693.31
2017-09-29T14:42:12.168Z,98694.95
2017-09-29T14:44:40.419Z,98691.98
2017-09-29T14:47:09.446Z,98694.69
2017-09-29T14:49:37.702Z,98690.59
2017-09-29T14:52:05.942Z,98684.38
2017-09-29T14:54:34.965Z,98681.97
2017-09-29T14:57:03.212Z,98678.77
2017-09-29T14:59:32.228Z,98681.00
2017-09-29T15:02:00.482Z,98674.69
2017-09-29T15:04:29.501Z,98675.52
2017-09-29T15:06:57.745Z,98678.20
2017-09-29T15:09:25.996Z,98682.63
2017-09-29T15:11:54.246Z,98680.67
2017-09-29T15:14:22.510Z,98681.81
2017-09-29T15:16:50.757Z,98685.19
2017-09-29T15:19:19.770Z,98682.24
2017-09-29T15:21:48.025Z,98689.42
2017-09-29T15:24:17.040Z,98685.49
2017-09-29T15:26:45.293Z,98686.19
2017-09-29T15:29:14.305Z,98685.27
2017-09-29T15:31:42.561Z,98679.84
2017-09-29T15:34:11.577Z,98681.82
2017-09-29T15:36:39.833Z,98681.63
2017-09-29T15:39:08.845Z,98677.23
2017-09-29T15:41:37.882Z,98681.39
2017-09-29T15:44:06.131Z,98675.41
2017-09-29T15:46:34.378Z,98664.69
2017-09-29T15:49:02.630Z,98666.30
2017-09-29T15:51:30.879Z,98667.36
2017-09-29T15:53:59.123Z,98669.56
2017-09-29T15:56:28.133Z,98667.72
2017-09-29T15:58:56.389Z,98663.89
2017-09-29T16:01:25.402Z,98669.50
2017-09-29T16:03:53.652Z,98665.33
2017-09-29T16:06:22.673Z,98663.19
2017-09-29T16:08:50.938Z,98665.40
2017-09-29T16:11:19.182Z,98663.67
2017-09-29T16:13:47.426Z,98662.50
2017-09-29T16:16:15.677Z,98667.73
2017-09-29T16:18:43.922Z,98666.91
2017-09-29T16:21:12.946Z,98663.53
2017-09-29T16:23:41.193Z,98666.59
2017-09-29T16:26:10.218Z,98670.19
2017-09-29T16:28:38.457Z,98665.45
2017-09-29T16:31:07.484Z,98669.13
2017-09-29T16:33:35.729Z,98666.55
2017-09-29T16:36:04.750Z,98668.58
2017-09-29T16:38:32.994Z,98675.97
2017-09-29T16:41:02.026Z,98667.05
2017-09-29T16:43:30.273Z,98669.20
2017-09-29T16:45:59.286Z,98667.53
2017-09-29T16:48:27.538Z,98672.87
2017-09-29T16:50:56.553Z,98672.02
2017-09-29T16:53:24.797Z,98669.44
2017-09-29T16:55:53.814Z,98664.34
2017-09-29T16:58:22.073Z,98666.43
2017-09-29T17:00:51.085Z,98673.77
2017-09-29T17:03:19.337Z,98672.51
2017-09-29T17:05:48.350Z,98672.97
2017-09-29T17:08:16.612Z,98674.73
2017-09-29T17:10:45.625Z,98674.86
2017-09-29T17:13:13.886Z,98674.46
2017-09-29T17:15:42.899Z,98671.95
2017-09-29T17:18:11.158Z,98668.14
2017-09-29T17:20:40.184Z,98664.80
2017-09-29T17:23:08.434Z,98670.86
2017-09-29T17:25:36.693Z,98664.44
2017-09-29T17:28:05.696Z,98670.06
2017-09-29T17:30:33.957Z,98670.95
2017-09-29T17:33:02.974Z,98670.97
2017-09-29T17:35:31.245Z,98667.98
2017-09-29T17:37:59.498Z,98665.91
2017-09-29T17:40:28.509Z,98670.31
2017-09-29T17:42:56.770Z,98665.16
2017-09-29T17:45:25.781Z,98665.27
2017-09-29T17:47:54.038Z,98666.96
2017-09-29T17:50:23.057Z,98672.16
2017-09-29T17:52:51.308Z,98671.72
2017-09-29T17:55:21.062Z,98673.05
2017-09-29T17:57:49.317Z,98671.80
2017-09-29T18:00:18.345Z,98668.83
2017-09-29T18:02:46.608Z,98669.28
2017-09-29T18:05:14.862Z,98671.45
2017-09-29T18:07:43.893Z,98672.31
2017-09-29T18:10:12.153Z,98672.31
2017-09-29T18:12:40.407Z,98674.09
2017-09-29T18:15:10.254Z,98667.25
2017-09-29T18:17:38.510Z,98662.95
2017-09-29T18:20:06.768Z,98668.56
2017-09-29T18:22:35.881Z,98669.95
2017-09-29T18:25:04.150Z,98659.24
2017-09-29T18:27:33.166Z,98659.25
2017-09-29T18:30:01.432Z,98661.84
2017-09-29T18:32:29.685Z,98665.75
2017-09-29T18:34:58.711Z,98667.48
2017-09-29T18:37:26.963Z,98677.78
2017-09-29T18:39:55.222Z,98670.47
2017-09-29T18:42:24.245Z,98676.05
2017-09-29T18:44:52.498Z,98667.48
2017-09-29T18:47:37.441Z,98670.95
2017-09-29T18:50:05.693Z,98660.64
2017-09-29T18:52:33.960Z,98669.66
2017-09-29T18:55:02.215Z,98666.65
2017-09-29T18:57:30.494Z,98671.36
2017-09-29T18:59:58.756Z,98667.09
2017-09-29T19:02:27.017Z,98665.81
2017-09-29T19:04:56.033Z,98661.08
2017-09-29T19:07:24.311Z,98653.34
2017-09-29T19:09:52.562Z,98652.91
2017-09-29T19:12:21.582Z,98647.77
2017-09-29T19:14:49.845Z,98645.19
2017-09-29T19:17:18.104Z,98649.09
2017-09-29T19:19:47.131Z,98653.41
2017-09-29T19:22:15.387Z,98656.03
2017-09-29T19:24:43.645Z,98660.30
2017-09-29T19:27:12.674Z,98650.00
2017-09-29T19:29:40.934Z,98654.77
2017-09-29T19:32:09.190Z,98650.48
2017-09-29T19:34:38.215Z,98656.49
2017-09-29T19:37:06.463Z,98653.51
2017-09-29T19:39:35.491Z,98658.25
2017-09-29T19:42:03.750Z,98656.98
2017-09-29T19:44:32.013Z,98658.73
2017-09-29T19:47:00.272Z,98650.98
2017-09-29T19:49:29.417Z,98651.82
2017-09-29T19:51:57.674Z,98652.28
2017-09-29T19:54:25.934Z,98651.90
2017-09-29T19:56:54.196Z,98654.05
2017-09-29T19:59:22.465Z,98662.64
2017-09-29T20:01:50.723Z,98663.06
2017-09-29T20:04:18.978Z,98660.96
2017-09-29T20:06:47.244Z,98654.95
2017-09-29T20:09:15.502Z,98651.11
2017-09-29T20:11:43.757Z,98652.83
2017-09-29T20:14:12.783Z,98661.87
2017-09-29T20:16:41.050Z,98645.17
2017-09-29T20:19:09.300Z,98655.44
2017-09-29T20:21:38.328Z,98648.58
2017-09-29T20:24:06.592Z,98646.02
2017-09-29T20:26:35.717Z,98640.47
2017-09-29T20:29:04.166Z,98645.19
2017-09-29T20:31:32.429Z,98640.45
2017-09-29T20:34:01.448Z,98651.63
2017-09-29T20:36:29.737Z,98643.89
2017-09-29T20:38:58.021Z,98649.48
2017-09-29T20:41:26.266Z,98643.06
2017-09-29T20:43:54.522Z,98643.09
2017-09-29T20:46:22.776Z,98643.96
2017-09-29T20:48:51.040Z,98640.52
2017-09-29T20:51:19.301Z,98646.09
2017-09-29T20:53:47.564Z,98635.83
2017-09-29T20:56:15.857Z,98642.69
2017-09-29T20:58:44.090Z,98633.25
2017-09-29T21:01:13.106Z,98641.83
2017-09-29T21:03:41.370Z,98635.38
2017-09-29T21:06:11.494Z,98625.94
2017-09-29T21:08:46.822Z,98629.37
2017-09-29T21:11:15.847Z,98620.36
2017-09-29T21:13:44.130Z,98623.75
2017-09-29T21:16:12.382Z,98625.05
2017-09-29T21:18:40.964Z,98622.89
2017-09-29T21:21:10.019Z,98625.92
2017-09-29T21:23:38.597Z,98618.16
2017-09-29T21:26:06.963Z,98618.98
2017-09-29T21:28:35.217Z,98615.56
2017-09-29T21:31:03.476Z,98606.15
2017-09-29T21:33:31.737Z,98603.58
2017-09-29T21:36:00.765Z,98603.16
2017-09-29T21:38:29.017Z,98600.61
2017-09-29T21:40:57.281Z,98605.36
2017-09-29T21:43:26.301Z,98599.75
2017-09-29T21:45:54.552Z,98598.48
2017-09-29T21:48:22.805Z,98603.16
2017-09-29T21:50:51.841Z,98600.14
2017-09-29T21:53:20.102Z,98607.00
2017-09-29T21:55:48.355Z,98606.95
2017-09-29T21:58:17.466Z,98601.83
2017-09-29T22:00:46.473Z,98596.25
2017-09-29T22:03:14.736Z,98595.86
2017-09-29T22:05:42.994Z,98595.81
2017-09-29T22:08:12.208Z,98591.50
2017-09-29T22:10:40.597Z,98585.09
2017-09-29T22:13:08.849Z,98590.25
2017-09-29T22:15:37.925Z,98593.24
2017-09-29T22:18:06.961Z,98586.86
2017-09-29T22:20:35.221Z,98589.97
2017-09-29T22:23:04.393Z,98586.55
2017-09-29T22:25:33.442Z,98588.25
2017-09-29T22:28:01.751Z,98581.82
2017-09-29T22:30:30.015Z,98583.05
2017-09-29T22:33:00.562Z,98573.64
2017-09-29T22:35:28.814Z,98575.34
2017-09-29T22:37:57.066Z,98574.05
2017-09-29T22:40:25.450Z,98573.64
2017-09-29T22:42:53.748Z,98576.20
2017-09-29T22:45:22.069Z,98572.34
2017-09-29T22:47:51.088Z,98572.81
2017-09-29T22:50:19.345Z,98559.95
2017-09-29T22:52:47.601Z,98565.48
2017-09-29T22:55:15.880Z,98556.48
2017-09-29T22:57:44.898Z,98554.77
2017-09-29T23:00:13.172Z,98546.59
2017-09-29T23:02:41.452Z,98540.13
2017-09-29T23:05:09.728Z,98538.84
2017-09-29T23:07:37.987Z,98531.13
2017-09-29T23:10:07.017Z,98528.97
2017-09-29T23:12:35.258Z,98527.28
2017-09-29T23:15:04.264Z,98519.97
2017-09-29T23:17:32.526Z,98521.73
2017-09-29T23:20:01.549Z,98519.62
2017-09-29T23:22:29.797Z,98524.75
2017-09-29T23:24:58.824Z,98516.16
2017-09-29T23:27:27.073Z,98515.33
2017-09-29T23:29:55.329Z,98514.92
2017-09-29T23:32:24.359Z,98517.11
2017-09-29T23:34:52.606Z,98513.21
2017-09-29T23:37:21.626Z,98506.78
2017-09-29T23:39:49.883Z,98501.63
2017-09-29T23:42:18.913Z,98497.33
2017-09-29T23:44:47.165Z,98485.00
2017-09-29T23:47:15.422Z,98484.61
2017-09-29T23:49:44.443Z,98486.33
2017-09-29T23:52:12.697Z,98485.50
2017-09-29T23:54:40.963Z,98485.09
2017-09-29T23:57:09.970Z,98484.64
2017-09-29T23:59:38.232Z,98491.09
